createdAt,value
2022-10-13T00:01:07.942Z,6.22
2022-10-13T00:03:36.608Z,7.05
2022-10-13T00:06:07.412Z,5.43
2022-10-13T00:08:35.506Z,8.55
2022-10-13T00:11:10.129Z,8.15
2022-10-13T00:13:37.207Z,7.57
2022-10-13T00:16:04.790Z,7.65
2022-10-13T00:18:32.385Z,9.23
2022-10-13T00:20:59.294Z,7.93
2022-10-13T00:23:26.322Z,7.60
2022-10-13T00:25:53.292Z,7.93
2022-10-13T00:28:20.617Z,7.38
2022-10-13T00:30:47.862Z,7.57
2022-10-13T00:33:15.127Z,8.80
2022-10-13T00:35:44.951Z,7.25
2022-10-13T00:38:17.328Z,8.88
2022-10-13T00:40:47.156Z,9.15
2022-10-13T00:43:40.662Z,7.32
2022-10-13T00:46:08.208Z,7.63
2022-10-13T00:48:35.081Z,8.57
2022-10-13T00:51:02.027Z,8.25
2022-10-13T00:53:34.400Z,7.70
2022-10-13T00:56:02.048Z,8.48
2022-10-13T00:58:31.735Z,8.20
2022-10-13T01:00:59.938Z,7.38
2022-10-13T01:03:27.413Z,7.95
2022-10-13T01:05:58.919Z,7.88
2022-10-13T01:08:27.095Z,8.15
2022-10-13T01:11:39.568Z,9.13
2022-10-13T01:15:26.548Z,8.05
2022-10-13T01:18:18.058Z,7.63
2022-10-13T01:21:02.452Z,8.45
2022-10-13T01:24:02.631Z,8.03
2022-10-13T01:26:57.184Z,8.00
2022-10-13T01:30:08.614Z,7.70
2022-10-13T01:33:18.527Z,7.63
2022-10-13T01:36:07.199Z,7.70
2022-10-13T01:38:41.511Z,8.00
2022-10-13T01:41:52.722Z,9.13
2022-10-13T01:44:35.859Z,7.65
2022-10-13T01:47:04.238Z,8.70
2022-10-13T01:49:34.992Z,7.50
2022-10-13T01:52:13.547Z,8.98
2022-10-13T01:54:40.640Z,9.20
2022-10-13T01:57:39.596Z,7.25
2022-10-13T02:00:13.504Z,7.32
2022-10-13T02:03:06.530Z,8.38
2022-10-13T02:05:49.268Z,7.93
2022-10-13T02:08:44.591Z,8.52
2022-10-13T02:11:16.755Z,7.82
2022-10-13T02:13:51.395Z,8.70
2022-10-13T02:16:23.664Z,8.27
2022-10-13T02:18:51.427Z,8.38
2022-10-13T02:21:19.904Z,8.95
2022-10-13T02:23:47.406Z,8.30
2022-10-13T02:26:14.533Z,7.78
2022-10-13T02:28:41.918Z,8.90
2022-10-13T02:31:09.581Z,7.88
2022-10-13T02:33:36.630Z,8.20
2022-10-13T02:36:03.901Z,8.82
2022-10-13T02:38:30.938Z,9.90
2022-10-13T02:40:57.961Z,7.53
2022-10-13T02:43:24.894Z,8.60
2022-10-13T02:45:51.869Z,8.52
2022-10-13T02:48:18.749Z,7.63
2022-10-13T02:50:47.554Z,8.65
2022-10-13T02:53:14.484Z,7.78
2022-10-13T02:55:41.655Z,8.55
2022-10-13T02:58:08.606Z,8.88
2022-10-13T03:00:35.548Z,8.85
2022-10-13T03:03:02.629Z,10.30
2022-10-13T03:05:29.530Z,8.40
2022-10-13T03:07:56.387Z,8.98
2022-10-13T03:10:23.442Z,9.50
2022-10-13T03:12:51.933Z,7.72
2022-10-13T03:15:18.862Z,7.53
2022-10-13T03:17:46.922Z,8.48
2022-10-13T03:20:13.810Z,7.85
2022-10-13T03:22:40.941Z,8.68
2022-10-13T03:25:08.637Z,8.00
2022-10-13T03:27:36.220Z,8.75
2022-10-13T03:30:04.180Z,8.27
2022-10-13T03:32:32.874Z,9.40
2022-10-13T03:35:00.276Z,8.05
2022-10-13T03:37:30.845Z,8.88
2022-10-13T03:39:57.771Z,8.68
2022-10-13T03:42:24.667Z,8.10
2022-10-13T03:44:56.064Z,7.95
2022-10-13T03:47:23.573Z,7.75
2022-10-13T03:49:50.464Z,8.43
2022-10-13T03:52:17.604Z,7.45
2022-10-13T03:54:45.866Z,8.32
2022-10-13T03:57:12.725Z,9.13
2022-10-13T03:59:41.494Z,7.75
2022-10-13T04:02:09.069Z,7.70
2022-10-13T04:04:38.396Z,8.43
2022-10-13T04:07:07.561Z,8.38
2022-10-13T04:09:35.002Z,7.38
2022-10-13T04:12:01.910Z,8.48
2022-10-13T04:14:29.019Z,8.85
2022-10-13T04:17:02.167Z,9.07
2022-10-13T04:19:29.026Z,8.20
2022-10-13T04:21:55.923Z,9.57
2022-10-13T04:24:22.886Z,9.32
2022-10-13T04:26:50.153Z,9.15
2022-10-13T04:29:17.075Z,7.93
2022-10-13T04:31:44.483Z,7.97
2022-10-13T04:34:12.176Z,8.45
2022-10-13T04:36:39.143Z,7.75
2022-10-13T04:39:06.052Z,8.60
2022-10-13T04:41:33.398Z,8.40
2022-10-13T04:44:02.488Z,8.68
2022-10-13T04:46:29.540Z,9.20
2022-10-13T04:48:57.072Z,8.40
2022-10-13T04:51:29.557Z,9.55
2022-10-13T04:53:59.097Z,8.80
2022-10-13T04:56:27.151Z,8.80
2022-10-13T04:58:54.390Z,8.80
2022-10-13T05:01:24.922Z,8.75
2022-10-13T05:03:58.986Z,8.82
2022-10-13T05:06:30.130Z,9.07
2022-10-13T05:08:57.593Z,9.27
2022-10-13T05:11:29.404Z,9.80
2022-10-13T05:13:57.775Z,9.15
2022-10-13T05:16:25.838Z,8.75
2022-10-13T05:18:54.584Z,10.52
2022-10-13T05:21:27.917Z,10.40
2022-10-13T05:23:56.622Z,9.27
2022-10-13T05:26:31.943Z,8.98
2022-10-13T05:29:01.739Z,8.85
2022-10-13T05:31:34.167Z,9.73
2022-10-13T05:34:01.321Z,10.85
2022-10-13T05:36:33.158Z,9.65
2022-10-13T05:39:07.622Z,9.40
2022-10-13T05:41:34.521Z,9.02
2022-10-13T05:44:08.733Z,10.68
2022-10-13T05:46:42.200Z,10.88
2022-10-13T05:49:09.122Z,9.35
2022-10-13T05:51:41.989Z,10.27
2022-10-13T05:54:30.162Z,9.60
2022-10-13T05:57:05.165Z,10.00
2022-10-13T05:59:38.700Z,9.02
2022-10-13T06:02:10.171Z,9.02
2022-10-13T06:04:45.976Z,10.18
2022-10-13T06:07:14.363Z,8.93
2022-10-13T06:09:42.255Z,9.35
2022-10-13T06:12:10.459Z,9.35
2022-10-13T06:14:37.746Z,9.07
2022-10-13T06:17:08.448Z,8.90
2022-10-13T06:19:37.437Z,10.07
2022-10-13T06:22:08.387Z,9.60
2022-10-13T06:24:35.332Z,9.82
2022-10-13T06:27:04.692Z,8.93
2022-10-13T06:29:33.370Z,9.70
2022-10-13T06:32:00.267Z,9.13
2022-10-13T06:34:27.266Z,8.95
2022-10-13T06:36:54.523Z,10.05
2022-10-13T06:39:21.538Z,10.80
2022-10-13T06:41:50.046Z,10.07
2022-10-13T06:44:16.965Z,9.57
2022-10-13T06:46:43.877Z,10.48
2022-10-13T06:49:10.774Z,10.02
2022-10-13T06:51:38.068Z,10.35
2022-10-13T06:54:04.961Z,9.52
2022-10-13T06:56:33.916Z,10.52
2022-10-13T06:59:05.507Z,9.02
2022-10-13T07:01:36.730Z,9.60
2022-10-13T07:04:10.534Z,9.63
2022-10-13T07:06:37.380Z,9.30
2022-10-13T07:09:08.359Z,9.35
2022-10-13T07:11:35.868Z,11.15
2022-10-13T07:14:03.211Z,9.98
2022-10-13T07:16:30.240Z,9.90
2022-10-13T07:18:57.308Z,10.05
2022-10-13T07:21:24.547Z,10.07
2022-10-13T07:23:51.594Z,10.45
2022-10-13T07:26:18.542Z,10.48
2022-10-13T07:28:46.127Z,10.65
2022-10-13T07:31:19.099Z,9.55
2022-10-13T07:33:49.109Z,10.52
2022-10-13T07:36:18.509Z,9.68
2022-10-13T07:38:46.648Z,9.60
2022-10-13T07:41:14.490Z,10.57
2022-10-13T07:43:42.252Z,8.15
2022-10-13T07:46:11.020Z,8.52
2022-10-13T07:48:38.198Z,9.73
2022-10-13T07:51:11.615Z,9.10
2022-10-13T07:53:40.119Z,10.23
2022-10-13T07:56:10.672Z,9.98
2022-10-13T07:58:39.998Z,9.68
2022-10-13T08:01:06.997Z,10.30
2022-10-13T08:03:40.969Z,10.32
2022-10-13T08:06:14.376Z,10.30
2022-10-13T08:08:41.500Z,9.90
2022-10-13T08:11:16.528Z,9.60
2022-10-13T08:13:51.475Z,9.73
2022-10-13T08:16:21.475Z,8.88
2022-10-13T08:18:49.089Z,10.00
2022-10-13T08:24:17.500Z,10.95
2022-10-13T08:26:46.385Z,10.30
2022-10-13T08:29:22.069Z,10.40
2022-10-13T08:31:52.451Z,10.82
2022-10-13T08:34:20.325Z,11.20
2022-10-13T08:36:47.463Z,13.35
2022-10-13T08:39:14.554Z,12.27
2022-10-13T08:41:44.174Z,13.98
2022-10-13T08:47:35.679Z,13.65
2022-10-13T08:50:15.923Z,14.98
2022-10-13T08:52:58.417Z,14.43
2022-10-13T08:55:40.203Z,14.60
2022-10-13T08:58:15.812Z,13.82
2022-10-13T09:00:42.712Z,15.40
2022-10-13T09:03:29.052Z,12.63
2022-10-13T09:06:14.911Z,12.10
2022-10-13T09:08:51.680Z,12.65
2022-10-13T09:11:18.679Z,15.20
2022-10-13T09:13:46.128Z,14.23
2022-10-13T09:16:13.138Z,12.73
2022-10-13T09:18:40.586Z,14.68
2022-10-13T09:21:25.163Z,14.18
2022-10-13T09:23:54.210Z,13.50
2022-10-13T09:26:25.589Z,12.95
2022-10-13T09:28:53.170Z,12.68
2022-10-13T09:31:27.024Z,13.23
2022-10-13T09:34:03.686Z,12.98
2022-10-13T09:36:31.346Z,13.05
2022-10-13T09:39:17.105Z,11.68
2022-10-13T09:41:44.944Z,13.25
2022-10-13T09:44:37.093Z,11.48
2022-10-13T09:47:04.857Z,12.20
2022-10-13T09:49:39.833Z,10.80
2022-10-13T09:52:19.568Z,11.13
2022-10-13T09:55:01.023Z,13.18
2022-10-13T09:57:48.564Z,10.75
2022-10-13T10:00:28.773Z,10.68
2022-10-13T10:03:27.781Z,9.82
2022-10-13T10:06:01.235Z,9.15
2022-10-13T10:09:03.114Z,9.02
2022-10-13T10:11:40.818Z,8.73
2022-10-13T10:14:28.171Z,9.40
2022-10-13T10:17:38.164Z,7.68
2022-10-13T10:20:32.427Z,9.63
2022-10-13T10:23:26.942Z,7.57
2022-10-13T10:26:13.452Z,7.30
2022-10-13T10:29:24.253Z,7.57
2022-10-13T10:32:32.302Z,7.90
2022-10-13T10:35:05.254Z,7.97
2022-10-13T10:37:58.001Z,8.07
2022-10-13T10:40:56.622Z,8.95
2022-10-13T10:43:43.360Z,9.82
2022-10-13T10:46:18.498Z,8.48
2022-10-13T10:48:50.262Z,8.35
2022-10-13T10:51:18.734Z,8.75
2022-10-13T10:54:21.739Z,8.32
2022-10-13T10:57:04.610Z,7.70
2022-10-13T11:00:13.076Z,8.45
2022-10-13T11:02:47.529Z,8.02
2022-10-13T11:05:15.700Z,8.48
2022-10-13T11:07:43.074Z,8.60
2022-10-13T11:10:18.660Z,8.85
2022-10-13T11:15:51.135Z,7.32
2022-10-13T11:18:59.010Z,8.88
2022-10-13T11:21:59.709Z,7.85
2022-10-13T11:24:41.544Z,9.05
2022-10-13T11:27:16.782Z,8.27
2022-10-13T11:29:51.532Z,7.93
2022-10-13T11:32:36.194Z,8.27
2022-10-13T11:35:06.487Z,8.43
2022-10-13T11:38:43.994Z,8.50
2022-10-13T11:41:27.408Z,9.40
2022-10-13T11:44:17.051Z,9.43
2022-10-13T11:47:18.228Z,8.70
2022-10-13T11:50:22.656Z,9.27
2022-10-13T11:53:12.193Z,10.52
2022-10-13T11:55:57.160Z,9.45
2022-10-13T11:58:33.116Z,8.43
2022-10-13T12:01:07.158Z,11.23
2022-10-13T12:03:44.674Z,11.90
2022-10-13T12:06:34.915Z,11.40
2022-10-13T12:09:06.727Z,11.45
2022-10-13T12:11:37.927Z,12.25
2022-10-13T12:14:28.638Z,11.73
2022-10-13T12:16:58.550Z,12.30
2022-10-13T12:19:29.859Z,11.88
2022-10-13T12:22:01.650Z,14.13
2022-10-13T12:24:31.026Z,14.23
2022-10-13T12:26:59.091Z,13.90
2022-10-13T12:29:30.249Z,14.88
2022-10-13T12:32:00.445Z,12.88
2022-10-13T12:34:35.035Z,14.25
2022-10-13T12:37:15.750Z,14.80
2022-10-13T12:39:43.535Z,15.02
2022-10-13T12:42:14.960Z,12.93
2022-10-13T12:44:42.381Z,15.02
2022-10-13T12:47:42.699Z,15.35
2022-10-13T12:50:27.440Z,15.52
2022-10-13T12:53:13.851Z,14.32
2022-10-13T12:56:28.923Z,16.50
2022-10-13T12:58:57.448Z,16.35
2022-10-13T13:01:35.424Z,14.70
2022-10-13T13:04:28.604Z,15.27
2022-10-13T13:07:05.119Z,15.70
2022-10-13T13:09:41.282Z,15.70
2022-10-13T13:12:10.999Z,16.02
2022-10-13T13:14:41.922Z,15.95
2022-10-13T13:17:45.741Z,16.35
2022-10-13T13:20:40.125Z,15.05
2022-10-13T13:23:07.098Z,15.30
2022-10-13T13:25:34.001Z,16.67
2022-10-13T13:28:10.094Z,16.80
2022-10-13T13:33:03.998Z,16.45
2022-10-13T13:35:31.877Z,14.43
2022-10-13T13:37:58.868Z,13.65
2022-10-13T13:40:28.138Z,14.02
2022-10-13T13:42:55.302Z,15.18
2022-10-13T13:45:25.549Z,14.90
2022-10-13T13:47:57.987Z,15.02
2022-10-13T13:50:34.238Z,14.85
2022-10-13T13:53:01.467Z,14.70
2022-10-13T13:55:30.119Z,16.33
2022-10-13T13:57:58.707Z,14.55
2022-10-13T14:00:25.767Z,13.80
2022-10-13T14:02:57.344Z,15.20
2022-10-13T14:05:24.764Z,13.40
2022-10-13T14:07:55.178Z,14.15
2022-10-13T14:10:22.253Z,13.73
2022-10-13T14:12:49.143Z,13.65
2022-10-13T14:15:17.085Z,13.75
2022-10-13T14:17:44.514Z,15.13
2022-10-13T14:20:11.869Z,13.70
2022-10-13T14:22:39.434Z,13.38
2022-10-13T14:25:08.253Z,13.68
2022-10-13T14:27:36.735Z,13.30
2022-10-13T14:30:06.920Z,13.70
2022-10-13T14:32:36.287Z,15.27
2022-10-13T14:35:04.680Z,15.35
2022-10-13T14:37:33.570Z,15.07
2022-10-13T14:40:00.825Z,15.23
2022-10-13T14:42:28.026Z,14.88
2022-10-13T14:44:55.028Z,14.55
2022-10-13T14:47:22.960Z,15.50
2022-10-13T14:49:50.424Z,14.52
2022-10-13T14:52:17.263Z,14.85
2022-10-13T14:54:45.163Z,14.75
2022-10-13T14:57:16.395Z,15.65
2022-10-13T14:59:43.812Z,13.77
2022-10-13T15:02:11.899Z,14.35
2022-10-13T15:04:45.343Z,15.05
2022-10-13T15:07:12.203Z,13.75
2022-10-13T15:09:52.339Z,14.82
2022-10-13T15:12:25.950Z,12.70
2022-10-13T15:14:52.797Z,14.07
2022-10-13T15:17:19.745Z,16.38
2022-10-13T15:19:46.701Z,13.85
2022-10-13T15:22:13.676Z,15.63
2022-10-13T15:24:40.898Z,14.30
2022-10-13T15:27:08.061Z,13.65
2022-10-13T15:29:34.963Z,15.32
2022-10-13T15:32:18.749Z,13.75
2022-10-13T15:34:50.742Z,14.65
2022-10-13T15:37:17.692Z,15.70
2022-10-13T15:39:44.848Z,15.45
2022-10-13T15:42:12.189Z,14.25
2022-10-13T15:47:25.868Z,15.70
2022-10-13T15:49:52.753Z,15.68
2022-10-13T15:52:20.109Z,14.98
2022-10-13T15:54:51.306Z,15.88
2022-10-13T15:57:18.474Z,16.60
2022-10-13T15:59:45.485Z,17.10
2022-10-13T16:02:12.835Z,16.75
2022-10-13T16:04:40.101Z,15.10
2022-10-13T16:07:07.331Z,15.05
2022-10-13T16:09:34.473Z,15.18
2022-10-13T16:12:01.675Z,14.60
2022-10-13T16:14:28.609Z,16.38
2022-10-13T16:16:58.412Z,16.08
2022-10-13T16:19:25.615Z,15.50
2022-10-13T16:21:52.933Z,16.50
2022-10-13T16:24:20.008Z,15.30
2022-10-13T16:26:46.897Z,15.60
2022-10-13T16:29:13.977Z,15.55
2022-10-13T16:31:40.937Z,15.52
2022-10-13T16:34:07.769Z,15.57
2022-10-13T16:36:34.724Z,16.02
2022-10-13T16:39:01.582Z,15.10
2022-10-13T16:41:28.440Z,16.85
2022-10-13T16:43:55.491Z,16.13
2022-10-13T16:46:22.424Z,17.45
2022-10-13T16:48:49.346Z,17.75
2022-10-13T16:51:23.339Z,17.60
2022-10-13T16:53:53.508Z,18.63
2022-10-13T16:56:22.662Z,17.52
2022-10-13T16:58:53.037Z,19.55
2022-10-13T17:01:21.229Z,18.92
2022-10-13T17:03:50.289Z,18.35
2022-10-13T17:06:19.899Z,18.40
2022-10-13T17:08:53.415Z,18.48
2022-10-13T17:11:24.249Z,18.88
2022-10-13T17:13:51.707Z,18.67
2022-10-13T17:16:19.824Z,19.45
2022-10-13T17:18:47.108Z,18.92
2022-10-13T17:21:17.218Z,18.00
2022-10-13T17:23:48.633Z,18.58
2022-10-13T17:26:18.125Z,19.50
2022-10-13T17:28:45.860Z,19.90
2022-10-13T17:31:22.539Z,21.48
2022-10-13T17:33:50.267Z,19.70
2022-10-13T17:36:27.104Z,20.85
2022-10-13T17:38:56.357Z,20.02
2022-10-13T17:41:24.499Z,22.02
2022-10-13T17:43:52.097Z,18.70
2022-10-13T17:46:36.875Z,19.63
2022-10-13T17:51:32.849Z,19.73
2022-10-13T17:54:00.949Z,18.45
2022-10-13T17:56:29.058Z,18.88
2022-10-13T17:58:56.748Z,18.90
2022-10-13T18:01:32.758Z,19.52
2022-10-13T18:04:07.392Z,20.73
2022-10-13T18:06:39.910Z,22.27
2022-10-13T18:09:10.536Z,21.67
2022-10-13T18:11:38.461Z,19.17
2022-10-13T18:14:06.260Z,20.52
2022-10-13T18:16:34.287Z,21.52
2022-10-13T18:19:01.242Z,21.52
2022-10-13T18:21:29.390Z,19.73
2022-10-13T18:23:59.788Z,21.25
2022-10-13T18:26:32.092Z,22.98
2022-10-13T18:28:59.078Z,23.58
2022-10-13T18:31:29.616Z,24.55
2022-10-13T18:34:10.573Z,23.48
2022-10-13T18:36:50.283Z,24.38
2022-10-13T18:39:27.712Z,24.20
2022-10-13T18:41:57.059Z,25.13
2022-10-13T18:44:33.988Z,23.52
2022-10-13T18:47:01.086Z,26.75
2022-10-13T18:49:31.330Z,23.25
2022-10-13T18:52:02.047Z,23.90
2022-10-13T18:54:30.474Z,25.63
2022-10-13T18:56:57.592Z,23.67
2022-10-13T18:59:24.539Z,26.17
2022-10-13T19:01:52.020Z,25.15
2022-10-13T19:04:19.245Z,23.77
2022-10-13T19:06:46.632Z,23.98
2022-10-13T19:09:17.307Z,25.58
2022-10-13T19:11:44.717Z,25.30
2022-10-13T19:14:14.367Z,24.83
2022-10-13T19:16:43.652Z,25.50
2022-10-13T19:19:11.387Z,25.10
2022-10-13T19:21:39.550Z,23.10
2022-10-13T19:24:09.700Z,25.95
2022-10-13T19:26:37.704Z,25.58
2022-10-13T19:29:14.027Z,26.92
2022-10-13T19:31:42.564Z,26.42
2022-10-13T19:34:11.665Z,27.38
2022-10-13T19:36:45.429Z,28.42
2022-10-13T19:39:20.465Z,29.00
2022-10-13T19:41:49.599Z,30.83
2022-10-13T19:44:18.303Z,29.70
2022-10-13T19:46:47.005Z,28.52
2022-10-13T19:49:17.109Z,23.27
2022-10-13T19:51:46.059Z,22.92
2022-10-13T19:54:13.674Z,21.35
2022-10-13T19:56:46.124Z,22.02
2022-10-13T19:59:14.327Z,22.23
2022-10-13T20:01:41.708Z,22.00
2022-10-13T20:04:14.349Z,23.23
2022-10-13T20:06:44.039Z,22.05
2022-10-13T20:09:11.227Z,22.77
2022-10-13T20:11:38.305Z,22.98
2022-10-13T20:14:05.474Z,23.08
2022-10-13T20:16:32.854Z,23.75
2022-10-13T20:19:00.891Z,23.85
2022-10-13T20:21:28.861Z,24.30
2022-10-13T20:23:56.852Z,24.65
2022-10-13T20:26:24.834Z,25.33
2022-10-13T20:28:53.935Z,25.58
2022-10-13T20:31:22.147Z,26.25
2022-10-13T20:33:53.834Z,23.27
2022-10-13T20:36:21.227Z,25.27
2022-10-13T20:38:49.238Z,24.90
2022-10-13T20:41:26.699Z,24.17
2022-10-13T20:43:55.736Z,23.98
2022-10-13T20:46:26.441Z,24.75
2022-10-13T20:49:11.986Z,24.20
2022-10-13T20:51:41.659Z,24.35
2022-10-13T20:54:09.723Z,21.70
2022-10-13T20:56:36.724Z,21.83
2022-10-13T20:59:07.654Z,17.98
2022-10-13T21:01:35.322Z,19.05
2022-10-13T21:04:02.801Z,15.70
2022-10-13T21:06:29.964Z,18.83
2022-10-13T21:09:00.439Z,15.20
2022-10-13T21:11:27.499Z,15.05
2022-10-13T21:13:54.652Z,15.00
2022-10-13T21:16:27.177Z,15.30
2022-10-13T21:18:56.667Z,14.05
2022-10-13T21:21:27.833Z,13.68
2022-10-13T21:23:57.875Z,13.38
2022-10-13T21:26:27.077Z,13.57
2022-10-13T21:28:54.033Z,13.90
2022-10-13T21:31:22.970Z,12.25
2022-10-13T21:33:50.528Z,14.15
2022-10-13T21:36:21.249Z,13.27
2022-10-13T21:38:53.369Z,13.95
2022-10-13T21:41:21.165Z,13.02
2022-10-13T21:43:49.578Z,14.05
2022-10-13T21:46:25.419Z,14.55
2022-10-13T21:48:58.567Z,14.27
2022-10-13T21:51:29.615Z,14.18
2022-10-13T21:54:03.640Z,14.05
2022-10-13T21:56:31.894Z,14.13
2022-10-13T21:58:59.421Z,14.80
2022-10-13T22:01:26.875Z,12.13
2022-10-13T22:03:59.698Z,12.52
2022-10-13T22:06:28.662Z,12.75
2022-10-13T22:08:58.553Z,14.30
2022-10-13T22:11:29.845Z,13.23
2022-10-13T22:13:58.198Z,12.13
2022-10-13T22:16:33.480Z,12.50
2022-10-13T22:19:00.507Z,13.80
2022-10-13T22:21:36.450Z,13.98
2022-10-13T22:24:06.317Z,14.32
2022-10-13T22:26:36.505Z,13.32
2022-10-13T22:29:05.995Z,13.65
2022-10-13T22:31:33.677Z,13.68
2022-10-13T22:34:07.834Z,14.00
2022-10-13T22:36:34.804Z,14.88
2022-10-13T22:39:04.434Z,14.52
2022-10-13T22:41:33.515Z,15.15
2022-10-13T22:44:01.846Z,14.73
2022-10-13T22:46:35.232Z,15.40
2022-10-13T22:49:03.997Z,14.98
2022-10-13T22:51:33.361Z,14.73
2022-10-13T22:54:00.522Z,14.55
2022-10-13T22:56:31.066Z,14.93
2022-10-13T22:59:06.033Z,16.63
2022-10-13T23:01:33.655Z,18.25
2022-10-13T23:04:00.970Z,18.88
2022-10-13T23:06:31.098Z,18.33
2022-10-13T23:09:04.500Z,18.60
2022-10-13T23:11:31.667Z,19.90
2022-10-13T23:14:01.663Z,20.30
2022-10-13T23:16:30.009Z,19.25
2022-10-13T23:18:56.947Z,19.98
2022-10-13T23:21:28.060Z,20.27
2022-10-13T23:24:01.393Z,19.50
2022-10-13T23:26:29.281Z,19.98
2022-10-13T23:29:10.945Z,19.25
2022-10-13T23:31:37.815Z,19.15
2022-10-13T23:34:04.954Z,19.58
2022-10-13T23:36:32.822Z,18.67
2022-10-13T23:39:05.548Z,17.52
2022-10-13T23:41:32.892Z,16.92
2022-10-13T23:44:00.296Z,17.52
2022-10-13T23:46:27.770Z,18.00
2022-10-13T23:48:54.907Z,18.77
2022-10-13T23:51:25.029Z,15.40
2022-10-13T23:53:52.714Z,15.95
2022-10-13T23:56:20.302Z,16.27
2022-10-13T23:58:47.878Z,16.35
